createdAt,value
2022-10-28T00:02:00.588Z,101528.56
2022-10-28T00:07:03.122Z,101531.88
2022-10-28T00:12:05.903Z,101532.78
2022-10-28T00:17:08.214Z,101521.78
2022-10-28T00:22:10.508Z,101519.72
2022-10-28T00:27:12.752Z,101507.69
2022-10-28T00:32:15.067Z,101512.38
2022-10-28T00:37:17.420Z,101502.47
2022-10-28T00:42:22.475Z,101500.63
2022-10-28T00:47:33.835Z,101502.25
2022-10-28T00:52:36.340Z,101494.16
2022-10-28T00:57:39.601Z,101490.31
2022-10-28T01:02:46.422Z,101492.16
2022-10-28T01:07:51.434Z,101480.09
2022-10-28T01:13:19.660Z,101475.56
2022-10-28T01:18:44.005Z,101479.31
2022-10-28T01:24:08.947Z,101475.97
2022-10-28T01:29:42.025Z,101463.94
2022-10-28T01:35:15.005Z,101462.03
2022-10-28T01:40:23.977Z,101466.88
2022-10-28T01:45:31.698Z,101472.25
2022-10-28T01:50:59.066Z,101462.41
2022-10-28T01:56:07.003Z,101456.03
2022-10-28T02:01:10.494Z,101452.44
2022-10-28T02:06:21.659Z,101450.84
2022-10-28T02:11:51.910Z,101443.50
2022-10-28T02:17:16.242Z,101454.41
2022-10-28T02:22:22.257Z,101447.72
2022-10-28T02:27:33.835Z,101440.41
2022-10-28T02:32:42.063Z,101436.09
2022-10-28T02:37:46.768Z,101434.41
2022-10-28T02:42:55.957Z,101414.19
2022-10-28T02:48:02.863Z,101421.22
2022-10-28T02:53:13.746Z,101416.84
2022-10-28T02:58:16.102Z,101413.09
2022-10-28T03:03:18.490Z,101415.16
2022-10-28T03:08:20.922Z,101411.69
2022-10-28T03:13:23.528Z,101405.03
2022-10-28T03:18:26.025Z,101405.44
2022-10-28T03:23:28.475Z,101403.03
2022-10-28T03:28:30.804Z,101417.66
2022-10-28T03:33:33.153Z,101410.38
2022-10-28T03:38:35.458Z,101406.94
2022-10-28T03:43:38.067Z,101409.47
2022-10-28T03:48:40.429Z,101398.09
2022-10-28T03:53:42.991Z,101393.19
2022-10-28T03:58:48.726Z,101387.53
2022-10-28T04:03:51.102Z,101390.19
2022-10-28T04:08:53.416Z,101378.09
2022-10-28T04:13:55.840Z,101383.00
2022-10-28T04:18:58.291Z,101360.06
2022-10-28T04:24:00.697Z,101362.34
2022-10-28T04:29:02.956Z,101350.22
2022-10-28T04:34:05.230Z,101351.91
2022-10-28T04:39:07.522Z,101337.69
2022-10-28T04:44:09.802Z,101333.25
2022-10-28T04:49:12.145Z,101316.50
2022-10-28T04:54:14.500Z,101324.66
2022-10-28T04:59:16.855Z,101323.34
2022-10-28T05:04:19.177Z,101311.34
2022-10-28T05:09:21.626Z,101316.91
2022-10-28T05:14:23.943Z,101314.78
2022-10-28T05:19:26.296Z,101320.69
2022-10-28T05:24:28.597Z,101311.25
2022-10-28T05:29:33.307Z,101303.50
2022-10-28T05:34:36.319Z,101296.44
2022-10-28T05:39:38.626Z,101299.53
2022-10-28T05:44:40.989Z,101300.66
2022-10-28T05:49:43.264Z,101301.13
2022-10-28T05:54:45.544Z,101291.63
2022-10-28T05:59:47.815Z,101291.72
2022-10-28T06:04:50.089Z,101289.94
2022-10-28T06:09:52.977Z,101289.53
2022-10-28T06:14:53.748Z,101290.28
2022-10-28T06:19:56.034Z,101290.13
2022-10-28T06:24:58.768Z,101276.41
2022-10-28T06:30:01.092Z,101276.41
2022-10-28T06:35:03.729Z,101281.44
2022-10-28T06:40:06.945Z,101285.63
2022-10-28T06:45:09.410Z,101287.13
2022-10-28T06:50:13.285Z,101292.00
2022-10-28T06:55:15.739Z,101295.03
2022-10-28T07:00:18.374Z,101290.84
2022-10-28T07:05:21.773Z,101300.50
2022-10-28T07:10:24.189Z,101294.47
2022-10-28T07:15:26.675Z,101301.13
2022-10-28T07:20:32.090Z,101298.72
2022-10-28T07:25:35.750Z,101297.09
2022-10-28T07:30:38.172Z,101305.19
2022-10-28T07:35:40.603Z,101304.00
2022-10-28T07:40:42.884Z,101304.09
2022-10-28T07:45:45.262Z,101299.13
2022-10-28T07:50:47.624Z,101302.00
2022-10-28T07:56:16.317Z,101306.34
2022-10-28T08:01:20.491Z,101295.28
2022-10-28T08:06:23.026Z,101275.47
2022-10-28T08:11:25.502Z,101282.72
2022-10-28T08:16:29.183Z,101272.03
2022-10-28T08:21:31.736Z,101283.66
2022-10-28T08:26:34.017Z,101281.53
2022-10-28T08:31:36.357Z,101265.47
2022-10-28T08:36:38.739Z,101277.00
2022-10-28T08:41:41.017Z,101281.72
2022-10-28T08:47:01.278Z,101277.34
2022-10-28T08:52:06.159Z,101265.53
2022-10-28T08:57:21.765Z,101253.75
2022-10-28T09:02:25.854Z,101254.03
2022-10-28T09:07:28.223Z,101258.16
2022-10-28T09:12:44.167Z,101258.97
2022-10-28T09:17:57.116Z,101252.91
2022-10-28T09:23:01.128Z,101240.31
2022-10-28T09:28:44.704Z,101250.66
2022-10-28T09:33:59.515Z,101244.34
2022-10-28T09:39:02.744Z,101241.28
2022-10-28T09:44:45.783Z,101214.38
2022-10-28T09:49:49.061Z,101233.13
2022-10-28T09:54:53.384Z,101225.13
2022-10-28T09:59:55.752Z,101222.63
2022-10-28T10:04:59.473Z,101225.03
2022-10-28T10:10:05.313Z,101224.56
2022-10-28T10:15:09.031Z,101215.13
2022-10-28T10:20:17.148Z,101212.66
2022-10-28T10:25:19.400Z,101202.63
2022-10-28T10:30:30.401Z,101185.22
2022-10-28T10:35:34.838Z,101173.38
2022-10-28T10:40:51.586Z,101166.25
2022-10-28T10:46:01.219Z,101171.00
2022-10-28T10:51:17.407Z,101171.22
2022-10-28T10:56:27.745Z,101168.56
2022-10-28T11:01:35.068Z,101177.22
2022-10-28T11:06:39.926Z,101160.28
2022-10-28T11:11:42.758Z,101156.63
2022-10-28T11:16:53.429Z,101179.00
2022-10-28T11:21:58.769Z,101209.16
2022-10-28T11:27:07.181Z,101220.38
2022-10-28T11:32:15.409Z,101196.00
2022-10-28T11:37:30.643Z,101173.31
2022-10-28T11:42:41.801Z,101166.31
2022-10-28T11:47:52.125Z,101140.38
2022-10-28T11:53:15.798Z,101161.44
2022-10-28T11:58:24.117Z,101149.97
2022-10-28T12:03:52.912Z,101166.94
2022-10-28T12:09:19.833Z,101177.19
2022-10-28T12:14:34.853Z,101171.88
2022-10-28T12:19:43.975Z,101159.88
2022-10-28T12:24:47.202Z,101164.38
2022-10-28T12:29:52.676Z,101153.34
2022-10-28T12:35:15.466Z,101133.47
2022-10-28T12:40:21.368Z,101123.66
2022-10-28T12:45:23.961Z,101108.88
2022-10-28T12:50:37.151Z,101100.47
2022-10-28T12:55:58.441Z,101101.59
2022-10-28T13:01:07.911Z,101096.75
2022-10-28T13:06:22.222Z,101103.38
2022-10-28T13:11:39.470Z,101087.91
2022-10-28T13:17:12.582Z,101082.13
2022-10-28T13:22:23.772Z,101070.75
2022-10-28T13:27:26.286Z,101046.63
2022-10-28T13:32:38.807Z,101045.19
2022-10-28T13:37:42.264Z,101055.00
2022-10-28T13:42:48.776Z,101042.72
2022-10-28T13:47:51.079Z,101042.78
2022-10-28T13:53:25.575Z,101048.13
2022-10-28T13:58:28.062Z,101046.06
2022-10-28T14:03:30.727Z,101033.38
2022-10-28T14:08:38.960Z,101022.56
2022-10-28T14:13:49.170Z,101023.03
2022-10-28T14:19:09.732Z,101031.31
2022-10-28T14:24:43.359Z,101025.47
2022-10-28T14:29:47.865Z,101022.19
2022-10-28T14:34:50.322Z,101021.09
2022-10-28T14:40:04.841Z,101020.03
2022-10-28T14:45:22.430Z,101029.31
2022-10-28T14:50:39.206Z,101035.63
2022-10-28T14:55:46.713Z,101044.19
2022-10-28T15:01:09.334Z,101057.22
2022-10-28T15:06:25.415Z,101058.84
2022-10-28T15:11:28.103Z,101054.53
2022-10-28T15:16:30.491Z,101054.59
2022-10-28T15:21:32.782Z,101061.03
2022-10-28T15:26:35.088Z,101046.09
2022-10-28T15:32:07.382Z,101033.38
2022-10-28T15:37:10.125Z,101026.06
2022-10-28T15:42:41.753Z,101018.56
2022-10-28T15:47:45.180Z,101022.19
2022-10-28T15:52:50.259Z,101014.63
2022-10-28T15:57:54.799Z,101010.25
2022-10-28T16:03:02.031Z,101003.66
2022-10-28T16:08:04.995Z,100987.88
2022-10-28T16:13:10.620Z,100986.41
2022-10-28T16:18:15.156Z,100985.03
2022-10-28T16:23:19.290Z,100998.34
2022-10-28T16:28:25.275Z,101002.06
2022-10-28T16:33:30.938Z,100990.53
2022-10-28T16:38:33.657Z,100989.22
2022-10-28T16:43:36.250Z,100980.91
2022-10-28T16:48:38.761Z,100972.69
2022-10-28T16:53:47.020Z,100971.25
2022-10-28T16:58:49.490Z,100974.06
2022-10-28T17:03:52.010Z,100974.69
2022-10-28T17:09:03.019Z,100968.72
2022-10-28T17:14:05.997Z,100969.53
2022-10-28T17:19:08.427Z,100969.06
2022-10-28T17:24:10.857Z,100967.66
2022-10-28T17:29:13.194Z,100959.03
2022-10-28T17:34:15.487Z,100975.19
2022-10-28T17:39:21.952Z,100959.97
2022-10-28T17:44:27.385Z,100951.75
2022-10-28T17:49:30.850Z,100949.31
2022-10-28T17:54:33.272Z,100946.63
2022-10-28T17:59:35.657Z,100957.03
2022-10-28T18:04:38.033Z,100958.94
2022-10-28T18:09:42.171Z,100952.19
2022-10-28T18:14:44.542Z,100951.25
2022-10-28T18:19:46.911Z,100943.44
2022-10-28T18:24:49.816Z,100937.50
2022-10-28T18:29:52.207Z,100931.94
2022-10-28T18:34:55.023Z,100922.25
2022-10-28T18:39:57.373Z,100891.03
2022-10-28T18:44:59.750Z,100899.94
2022-10-28T18:50:02.071Z,100896.59
2022-10-28T18:55:05.841Z,100895.22
2022-10-28T19:00:24.194Z,100895.22
2022-10-28T19:05:26.575Z,100894.00
2022-10-28T19:10:28.964Z,100888.28
2022-10-28T19:15:31.650Z,100889.75
2022-10-28T19:20:33.973Z,100892.06
2022-10-28T19:25:36.339Z,100903.00
2022-10-28T19:30:38.777Z,100917.81
2022-10-28T19:35:41.088Z,100909.63
2022-10-28T19:40:43.354Z,100896.34
2022-10-28T19:45:45.619Z,100893.47
2022-10-28T19:50:50.808Z,100886.06
2022-10-28T19:55:57.733Z,100875.84
2022-10-28T20:01:02.164Z,100864.94
2022-10-28T20:06:05.842Z,100869.91
2022-10-28T20:11:10.164Z,100877.09
2022-10-28T20:16:14.212Z,100874.22
2022-10-28T20:21:19.287Z,100858.19
2022-10-28T20:26:23.542Z,100872.66
2022-10-28T20:31:28.628Z,100871.91
2022-10-28T20:36:44.226Z,100864.06
2022-10-28T20:41:47.837Z,100863.63
2022-10-28T20:46:50.503Z,100853.28
2022-10-28T20:51:52.807Z,100852.13
2022-10-28T20:56:55.115Z,100856.72
2022-10-28T21:01:57.448Z,100842.13
2022-10-28T21:06:59.899Z,100836.22
2022-10-28T21:12:02.224Z,100820.31
2022-10-28T21:17:04.516Z,100848.16
2022-10-28T21:22:06.933Z,100839.22
2022-10-28T21:27:09.269Z,100842.09
2022-10-28T21:32:11.752Z,100852.25
2022-10-28T21:37:14.061Z,100843.59
2022-10-28T21:42:16.405Z,100842.25
2022-10-28T21:52:21.005Z,100836.16
2022-10-28T21:57:29.189Z,100826.28
2022-10-28T22:02:31.808Z,100828.75
2022-10-28T22:07:34.238Z,100832.63
2022-10-28T22:12:36.517Z,100821.97
2022-10-28T22:17:39.988Z,100824.13
2022-10-28T22:22:42.430Z,100821.53
2022-10-28T22:27:45.184Z,100823.03
2022-10-28T22:32:47.752Z,100812.41
2022-10-28T22:37:50.663Z,100805.31
2022-10-28T22:42:53.013Z,100811.88
2022-10-28T22:47:55.685Z,100814.31
2022-10-28T22:52:58.159Z,100808.38
2022-10-28T22:58:00.496Z,100807.38
2022-10-28T23:03:03.173Z,100797.19
2022-10-28T23:08:05.774Z,100799.06
2022-10-28T23:13:09.135Z,100798.53
2022-10-28T23:18:11.518Z,100801.84
2022-10-28T23:23:14.181Z,100791.66
2022-10-28T23:28:16.530Z,100802.44
2022-10-28T23:33:19.201Z,100799.81
2022-10-28T23:38:22.079Z,100795.25
2022-10-28T23:43:24.962Z,100811.69
2022-10-28T23:48:28.411Z,100798.22
2022-10-28T23:53:31.347Z,100786.78
2022-10-28T23:58:33.957Z,100796.88
